Terminal Aerodrome Forecast
Issued by NWS

Home | Current Version | Previous Version | Text Only | Print | Product List | Glossary On
Versions: 1 2 3 4 5 6 7 8 9 10 11 12
000
FTUS45 KABQ 220540
TAFGUP
TAF
KGUP 220540Z 2206/2306 21011KT P6SM FEW080
     FM221700 21015G25KT P6SM FEW060
     FM221930 22025G35KT P6SM SCT070
     FM230200 22007KT P6SM FEW070=

USA.gov is the U.S. government's official web portal to all federal, state and local government web resources and services.